Time;durP1;ratioP1;P1;durP2;ratioP2;P2;SDS_P1;SDS_P2;PMS_P1;PMS_P2;Temp;Humidity;BMP_temperature;BMP_pressure;BME280_temperature;BME280_humidity;BME280_pressure;Samples;Min_cycle;Max_cycle;Signal;HPM_P1;HPM_P2
2022/03/15 00:00:53;;;;;;;49.15;18.35;;;;;;;3.04;98.46;102815.34;4978978;28;20366;-67
2022/03/15 00:03:19;;;;;;;27.50;16.27;;;;;;;3.03;98.42;102803.09;4984251;28;20783;-68
2022/03/15 00:05:45;;;;;;;30.23;16.25;;;;;;;3.01;98.58;102807.44;4985133;28;20041;-68
2022/03/15 00:08:10;;;;;;;36.78;17.60;;;;;;;3.01;98.58;102799.59;4992297;28;20063;-68
2022/03/15 00:10:36;;;;;;;39.63;18.73;;;;;;;3.01;98.70;102803.94;5006778;28;20067;-68
2022/03/15 00:13:02;;;;;;;40.83;20.42;;;;;;;3.01;98.86;102803.94;5007563;28;20033;-68
2022/03/15 00:15:28;;;;;;;45.50;20.63;;;;;;;3.01;99.26;102809.16;5003417;28;20378;-68
2022/03/15 00:17:54;;;;;;;46.53;20.60;;;;;;;3.04;99.09;102809.22;5005836;28;20068;-68
2022/03/15 00:20:22;;;;;;;44.65;20.77;;;;;;;3.06;99.81;102802.28;4989045;28;20029;-67
2022/03/15 00:22:48;;;;;;;47.35;22.02;;;;;;;3.08;99.90;102798.84;5007620;28;20049;-68
2022/03/15 00:25:18;;;;;;;41.53;21.85;;;;;;;3.11;100.00;102801.50;5007346;28;20026;-67
2022/03/15 00:27:50;;;;;;;43.13;21.25;;;;;;;3.16;100.00;102803.31;5008626;28;20380;-67
2022/03/15 00:30:16;;;;;;;45.38;21.00;;;;;;;3.19;100.00;102803.34;5008698;28;20487;-68
2022/03/15 00:32:42;;;;;;;40.00;21.08;;;;;;;3.19;100.00;102805.97;5008215;28;20654;-68
2022/03/15 00:35:16;;;;;;;39.85;19.05;;;;;;;3.21;100.00;102806.91;5008215;28;20119;-68
2022/03/15 00:37:42;;;;;;;41.60;19.75;;;;;;;3.19;100.00;102804.25;5006673;28;20037;-69
2022/03/15 00:40:09;;;;;;;37.58;19.30;;;;;;;3.18;100.00;102810.34;4984951;28;20038;-68
2022/03/15 00:42:34;;;;;;;44.45;18.27;;;;;;;3.17;100.00;102805.09;5006703;28;20033;-68
2022/03/15 00:45:01;;;;;;;32.90;17.92;;;;;;;3.15;100.00;102802.44;5004998;28;20029;-68
2022/03/15 00:47:28;;;;;;;41.08;17.38;;;;;;;3.12;100.00;102805.88;5004232;28;20034;-68
2022/03/15 00:49:54;;;;;;;36.97;17.08;;;;;;;3.10;100.00;102802.34;5007061;28;20152;-68
2022/03/15 00:52:20;;;;;;;32.08;16.33;;;;;;;3.08;100.00;102806.69;5004862;28;20132;-68
2022/03/15 00:54:46;;;;;;;34.05;16.38;;;;;;;3.06;100.00;102816.22;5004933;28;20117;-68
2022/03/15 00:57:11;;;;;;;35.50;17.25;;;;;;;3.03;100.00;102805.72;5005152;28;20098;-68
2022/03/15 00:59:37;;;;;;;39.53;18.20;;;;;;;3.01;100.00;102810.06;5003486;28;20531;-68
2022/03/15 01:02:03;;;;;;;36.17;17.20;;;;;;;2.99;100.00;102802.16;5004153;28;20056;-68
2022/03/15 01:04:29;;;;;;;27.77;16.00;;;;;;;2.98;100.00;102794.28;5003655;28;20514;-67
2022/03/15 01:06:55;;;;;;;37.58;17.67;;;;;;;2.95;100.00;102791.63;5004606;28;20046;-68
2022/03/15 01:09:20;;;;;;;38.33;17.83;;;;;;;2.93;100.00;102794.22;5003979;28;20496;-68
2022/03/15 01:11:46;;;;;;;36.05;18.35;;;;;;;2.94;100.00;102795.09;5004359;28;20047;-68
2022/03/15 01:14:12;;;;;;;36.70;18.48;;;;;;;2.96;100.00;102796.88;4987647;28;20036;-68
2022/03/15 01:16:37;;;;;;;40.65;18.85;;;;;;;2.99;100.00;102785.56;5004578;28;20180;-67
2022/03/15 01:19:06;;;;;;;33.30;19.42;;;;;;;3.04;100.00;102786.53;5004907;28;20137;-68
2022/03/15 01:21:35;;;;;;;40.63;19.77;;;;;;;3.08;100.00;102784.84;5007436;28;20539;-67
2022/03/15 01:24:01;;;;;;;37.28;19.27;;;;;;;3.11;100.00;102785.78;5005444;28;20030;-68
2022/03/15 01:26:26;;;;;;;40.80;19.70;;;;;;;3.16;100.00;102785.00;4987730;28;21452;-68
2022/03/15 01:28:52;;;;;;;36.55;18.58;;;;;;;3.22;100.00;102790.34;4999273;28;20450;-67
2022/03/15 01:31:18;;;;;;;33.42;18.98;;;;;;;3.25;100.00;102778.19;4984796;28;20038;-68
2022/03/15 01:33:43;;;;;;;42.80;18.67;;;;;;;3.30;100.00;102777.34;5002564;28;20100;-67
2022/03/15 01:36:09;;;;;;;41.70;18.73;;;;;;;3.36;100.00;102769.59;5005205;28;20033;-67
2022/03/15 01:38:35;;;;;;;37.47;19.02;;;;;;;3.40;100.00;102772.28;5004775;28;20049;-67
2022/03/15 01:41:01;;;;;;;35.75;18.60;;;;;;;3.46;100.00;102771.53;4968290;28;20661;-67
2022/03/15 01:43:27;;;;;;;32.22;17.77;;;;;;;3.50;100.00;102765.44;4985504;28;20057;-67
2022/03/15 01:45:53;;;;;;;35.05;18.08;;;;;;;3.56;100.00;102775.16;5003109;28;21580;-67
2022/03/15 01:48:20;;;;;;;36.92;18.83;;;;;;;3.62;100.00;102764.78;5004545;28;20029;-67
2022/03/15 01:50:46;;;;;;;33.85;17.65;;;;;;;3.68;100.00;102771.84;4988204;28;20045;-67
2022/03/15 01:53:12;;;;;;;34.35;18.33;;;;;;;3.75;100.00;102778.03;5006817;28;20026;-67
2022/03/15 01:55:37;;;;;;;33.83;17.83;;;;;;;3.80;100.00;102769.38;5003571;28;20417;-69
2022/03/15 01:58:03;;;;;;;35.22;17.27;;;;;;;3.85;100.00;102772.06;5006183;28;20040;-68
2022/03/15 02:00:30;;;;;;;36.88;17.25;;;;;;;3.90;100.00;102772.13;5004190;28;20060;-67
2022/03/15 02:02:56;;;;;;;38.17;18.50;;;;;;;3.95;100.00;102765.22;4986699;28;20501;-67
2022/03/15 02:05:21;;;;;;;33.78;17.85;;;;;;;3.99;100.00;102769.66;4987724;28;20028;-68
2022/03/15 02:07:47;;;;;;;33.13;17.65;;;;;;;4.03;100.00;102762.69;4987240;28;20033;-67
2022/03/15 02:10:12;;;;;;;40.72;17.55;;;;;;;4.07;100.00;102764.47;4988607;28;20041;-67
2022/03/15 02:12:38;;;;;;;30.60;16.63;;;;;;;4.10;100.00;102764.53;5005894;28;20029;-67
2022/03/15 02:15:05;;;;;;;27.88;16.58;;;;;;;4.12;100.00;102760.19;5003370;28;20033;-68
2022/03/15 02:17:30;;;;;;;30.83;18.25;;;;;;;4.16;100.00;102758.47;4967218;28;20025;-68
2022/03/15 02:19:56;;;;;;;34.58;17.50;;;;;;;4.19;100.00;102750.63;5002619;28;20037;-67
2022/03/15 02:22:22;;;;;;;29.13;17.23;;;;;;;4.23;100.00;102754.22;4984783;28;20033;-68
2022/03/15 02:24:48;;;;;;;43.17;17.75;;;;;;;4.25;100.00;102749.84;5002711;28;20067;-67
2022/03/15 02:27:14;;;;;;;35.63;17.70;;;;;;;4.28;100.00;102747.25;4985134;28;20037;-68
2022/03/15 02:29:39;;;;;;;36.38;17.50;;;;;;;4.32;100.00;102741.19;4999859;28;20025;-67
2022/03/15 02:32:05;;;;;;;34.47;17.33;;;;;;;4.35;100.00;102736.84;5002109;28;20095;-67
2022/03/15 02:34:31;;;;;;;33.35;17.55;;;;;;;4.38;100.00;102733.38;4984565;28;21526;-67
2022/03/15 02:36:56;;;;;;;35.00;17.63;;;;;;;4.39;100.00;102735.16;5003291;28;20033;-68
2022/03/15 02:39:22;;;;;;;33.28;18.08;;;;;;;4.41;100.00;102733.41;4962645;28;20045;-67
2022/03/15 02:41:48;;;;;;;31.10;17.65;;;;;;;4.44;100.00;102733.47;4989194;28;20034;-67
2022/03/15 02:44:13;;;;;;;33.17;18.02;;;;;;;4.48;100.00;102732.59;5003989;28;20041;-68
2022/03/15 02:46:39;;;;;;;36.70;18.20;;;;;;;4.51;100.00;102728.28;5005855;28;20021;-68
2022/03/15 02:49:06;;;;;;;30.48;18.15;;;;;;;4.53;100.00;102727.41;5005630;28;20044;-66
2022/03/15 02:51:32;;;;;;;33.47;17.30;;;;;;;4.55;100.00;102725.69;5003669;28;20046;-67
2022/03/15 02:53:58;;;;;;;32.45;17.40;;;;;;;4.57;100.00;102723.97;5003509;28;20638;-67
2022/03/15 02:56:23;;;;;;;34.60;18.42;;;;;;;4.59;100.00;102721.34;4982920;28;20033;-68
2022/03/15 02:58:49;;;;;;;31.92;17.75;;;;;;;4.60;100.00;102724.00;5001818;28;20033;-68
2022/03/15 03:01:15;;;;;;;35.17;18.30;;;;;;;4.62;100.00;102721.38;5004313;28;20035;-67
2022/03/15 03:03:41;;;;;;;36.58;18.98;;;;;;;4.64;100.00;102724.03;5003067;28;20037;-68
2022/03/15 03:06:07;;;;;;;34.97;18.10;;;;;;;4.64;100.00;102719.66;5002509;28;20455;-67
2022/03/15 03:08:34;;;;;;;28.35;17.63;;;;;;;4.64;100.00;102719.66;5002981;28;21805;-68
2022/03/15 03:11:00;;;;;;;31.98;18.75;;;;;;;4.65;100.00;102721.41;4985288;28;20034;-68
2022/03/15 03:13:26;;;;;;;37.63;18.40;;;;;;;4.67;100.00;102729.28;5002335;28;20025;-68
2022/03/15 03:15:57;;;;;;;37.42;18.85;;;;;;;4.68;100.00;102726.69;4985147;28;20040;-68
2022/03/15 03:18:32;;;;;;;33.42;18.92;;;;;;;4.70;100.00;102724.06;5002345;28;20034;-69
2022/03/15 03:20:58;;;;;;;40.22;19.25;;;;;;;4.73;100.00;102721.47;4985585;28;20029;-69
2022/03/15 03:23:24;;;;;;;30.35;17.88;;;;;;;4.74;100.00;102715.38;5001629;28;20140;-68
2022/03/15 03:25:49;;;;;;;31.90;18.60;;;;;;;4.75;100.00;102720.63;5003852;28;20443;-67
2022/03/15 03:28:16;;;;;;;33.80;19.85;;;;;;;4.78;100.00;102716.28;4976480;28;20171;-68
2022/03/15 03:30:46;;;;;;;34.47;18.88;;;;;;;4.78;100.00;102711.91;5004435;28;20065;-68
2022/03/15 03:33:13;;;;;;;37.33;19.95;;;;;;;4.80;100.00;102710.16;5003419;28;20037;-67
2022/03/15 03:35:38;;;;;;;33.83;19.00;;;;;;;4.82;100.00;102712.81;4985535;28;20065;-68
2022/03/15 03:38:05;;;;;;;35.38;19.40;;;;;;;4.84;100.00;102700.56;4984458;28;20144;-67
2022/03/15 03:40:31;;;;;;;36.92;18.83;;;;;;;4.85;100.00;102704.97;5002984;28;20038;-67
2022/03/15 03:42:57;;;;;;;33.13;18.25;;;;;;;4.85;100.00;102697.09;4984480;28;20773;-67
2022/03/15 03:45:23;;;;;;;34.35;18.70;;;;;;;4.86;100.00;102696.22;5003683;28;20460;-68
2022/03/15 03:47:48;;;;;;;36.50;20.05;;;;;;;4.87;100.00;102705.84;5003205;28;20054;-68
2022/03/15 03:50:14;;;;;;;31.13;19.27;;;;;;;4.86;100.00;102698.84;5004208;28;20536;-68
2022/03/15 03:52:40;;;;;;;35.20;20.35;;;;;;;4.85;100.00;102702.34;5004006;28;20030;-68
2022/03/15 03:55:06;;;;;;;36.22;21.08;;;;;;;4.84;100.00;102705.81;5003824;28;20018;-68
2022/03/15 03:57:31;;;;;;;37.00;21.48;;;;;;;4.84;100.00;102708.44;5003599;28;20112;-68
2022/03/15 03:59:57;;;;;;;35.33;20.05;;;;;;;4.83;100.00;102709.31;5003138;28;20090;-67
2022/03/15 04:02:22;;;;;;;39.53;19.67;;;;;;;4.82;100.00;102704.94;5002818;28;20030;-68
2022/03/15 04:04:52;;;;;;;33.83;20.90;;;;;;;4.81;100.00;102711.06;4984944;28;20030;-67
2022/03/15 04:07:18;;;;;;;36.10;20.73;;;;;;;4.79;100.00;102707.53;5006532;28;20052;-68
2022/03/15 04:09:44;;;;;;;41.10;21.98;;;;;;;4.78;100.00;102711.03;5005375;28;20049;-68
2022/03/15 04:12:09;;;;;;;38.72;21.02;;;;;;;4.77;100.00;102710.16;5007401;28;20038;-67
2022/03/15 04:14:35;;;;;;;40.60;23.60;;;;;;;4.75;100.00;102714.50;5007052;28;20037;-67
2022/03/15 04:17:02;;;;;;;40.08;22.95;;;;;;;4.74;100.00;102712.75;5007867;28;20384;-67
2022/03/15 04:19:28;;;;;;;36.72;22.85;;;;;;;4.73;100.00;102711.88;4979331;28;20488;-68
2022/03/15 04:21:53;;;;;;;34.22;23.00;;;;;;;4.73;100.00;102713.59;5007541;28;20030;-68
2022/03/15 04:24:19;;;;;;;36.35;22.20;;;;;;;4.71;100.00;102707.47;5004950;28;20041;-68
2022/03/15 04:26:46;;;;;;;38.05;23.13;;;;;;;4.69;100.00;102707.44;5006048;28;20030;-68
2022/03/15 04:29:12;;;;;;;35.15;23.05;;;;;;;4.66;100.00;102704.81;4989371;28;20033;-68
2022/03/15 04:31:37;;;;;;;41.28;23.08;;;;;;;4.66;100.00;102715.31;4972215;28;20390;-67
2022/03/15 04:34:03;;;;;;;38.78;22.83;;;;;;;4.63;100.00;102707.38;4987510;28;20044;-68
2022/03/15 04:36:28;;;;;;;37.92;23.58;;;;;;;4.61;100.00;102709.13;4989591;28;20063;-67
2022/03/15 04:38:54;;;;;;;39.03;25.38;;;;;;;4.57;100.00;102697.72;4987695;28;20041;-67
2022/03/15 04:41:19;;;;;;;40.67;23.83;;;;;;;4.56;100.00;102702.94;5003984;28;20337;-67
2022/03/15 04:43:45;;;;;;;42.00;23.48;;;;;;;4.52;100.00;102703.81;5007142;28;20322;-67
2022/03/15 04:46:11;;;;;;;45.65;25.60;;;;;;;4.48;100.00;102700.28;5005322;28;20045;-67
2022/03/15 04:48:37;;;;;;;38.08;21.42;;;;;;;4.46;100.00;102697.63;5007362;28;20489;-67
2022/03/15 04:51:03;;;;;;;42.28;24.13;;;;;;;4.44;100.00;102701.09;5005904;28;20045;-67
2022/03/15 04:53:28;;;;;;;40.33;25.50;;;;;;;4.42;100.00;102698.44;5004016;28;20091;-68
2022/03/15 04:55:57;;;;;;;42.55;27.23;;;;;;;4.40;100.00;102694.94;5003072;28;20025;-68
2022/03/15 04:58:23;;;;;;;46.70;25.98;;;;;;;4.39;100.00;102695.81;5005483;28;20029;-68
2022/03/15 05:00:48;;;;;;;43.00;27.55;;;;;;;4.38;100.00;102685.28;5006677;28;20029;-68
2022/03/15 05:03:16;;;;;;;47.38;27.77;;;;;;;4.37;100.00;102687.06;5007359;28;20029;-69
2022/03/15 05:05:44;;;;;;;44.05;27.33;;;;;;;4.35;100.00;102673.00;5006000;28;20408;-67
2022/03/15 05:08:09;;;;;;;40.53;26.60;;;;;;;4.34;100.00;102674.78;5006897;28;20100;-67
2022/03/15 05:13:20;;;;;;;46.55;27.95;;;;;;;4.32;100.00;102679.09;5005151;28;20037;-68
2022/03/15 05:15:47;;;;;;;45.95;28.10;;;;;;;4.31;100.00;102674.72;5006813;28;20389;-68
2022/03/15 05:18:12;;;;;;;48.15;28.60;;;;;;;4.31;100.00;102676.50;4978242;28;20041;-67
2022/03/15 05:20:38;;;;;;;47.45;28.77;;;;;;;4.28;100.00;102673.81;5005827;28;20085;-69
2022/03/15 05:23:03;;;;;;;40.17;26.45;;;;;;;4.27;100.00;102677.31;5006497;28;20036;-68
2022/03/15 05:25:29;;;;;;;53.17;29.42;;;;;;;4.25;100.00;102679.91;5005331;28;20053;-68
2022/03/15 05:27:54;;;;;;;47.25;27.17;;;;;;;4.23;100.00;102672.91;5005935;28;20046;-68
2022/03/15 05:30:20;;;;;;;48.22;29.42;;;;;;;4.20;100.00;102672.00;5005546;28;20030;-67
2022/03/15 05:32:45;;;;;;;46.38;28.45;;;;;;;4.20;100.00;102677.25;5006118;28;20025;-67
2022/03/15 05:35:11;;;;;;;41.90;25.95;;;;;;;4.19;100.00;102674.59;4987327;28;20021;-67
2022/03/15 05:37:36;;;;;;;49.35;29.95;;;;;;;4.16;100.00;102678.09;5004649;28;20861;-68
2022/03/15 05:40:03;;;;;;;52.25;29.67;;;;;;;4.16;100.00;102677.19;5005331;28;20062;-67
2022/03/15 05:42:29;;;;;;;59.78;31.13;;;;;;;4.14;100.00;102679.78;5005681;28;20018;-67
2022/03/15 05:44:54;;;;;;;52.65;29.45;;;;;;;4.14;100.00;102674.56;5006809;28;21155;-68
2022/03/15 05:47:20;;;;;;;50.42;31.13;;;;;;;4.13;100.00;102669.31;5006344;28;20030;-67
2022/03/15 05:49:46;;;;;;;52.47;30.48;;;;;;;4.12;100.00;102676.28;5005389;28;20475;-67
2022/03/15 05:52:11;;;;;;;50.03;31.10;;;;;;;4.11;100.00;102666.66;5005715;28;20216;-68
2022/03/15 05:54:37;;;;;;;50.75;28.70;;;;;;;4.11;100.00;102669.28;5005069;28;20026;-68
2022/03/15 05:57:03;;;;;;;46.72;28.02;;;;;;;4.11;100.00;102671.03;5003230;28;20038;-67
2022/03/15 05:59:28;;;;;;;59.97;30.92;;;;;;;4.10;100.00;102671.88;5004415;28;20678;-67
2022/03/15 06:01:54;;;;;;;48.75;27.92;;;;;;;4.07;100.00;102664.88;5005891;28;20061;-67
2022/03/15 06:04:24;;;;;;;44.97;28.52;;;;;;;4.07;100.00;102670.09;5005045;28;20456;-68
2022/03/15 06:06:49;;;;;;;44.13;25.48;;;;;;;4.07;100.00;102670.09;4969764;28;20037;-68
2022/03/15 06:09:15;;;;;;;54.40;30.50;;;;;;;4.07;100.00;102664.88;5005004;28;20064;-68
2022/03/15 06:11:41;;;;;;;51.13;29.05;;;;;;;4.10;100.00;102671.88;5004724;28;20046;-68
2022/03/15 06:14:07;;;;;;;42.72;27.05;;;;;;;4.12;100.00;102667.53;5005514;28;20044;-67
2022/03/15 06:16:32;;;;;;;50.90;28.73;;;;;;;4.12;100.00;102668.44;4987046;28;20029;-68
2022/03/15 06:18:58;;;;;;;47.10;28.27;;;;;;;4.14;100.00;102677.19;4987597;28;20036;-67
2022/03/15 06:21:24;;;;;;;44.97;28.27;;;;;;;4.17;100.00;102671.09;5002689;28;20026;-67
2022/03/15 06:23:49;;;;;;;49.70;27.05;;;;;;;4.18;100.00;102673.75;5001850;28;20063;-67
2022/03/15 06:26:18;;;;;;;41.55;27.33;;;;;;;4.21;100.00;102675.50;5002036;28;20029;-67
2022/03/15 06:28:43;;;;;;;51.53;28.60;;;;;;;4.24;100.00;102678.16;4965597;28;20052;-67
2022/03/15 06:31:09;;;;;;;52.03;26.80;;;;;;;4.26;100.00;102676.44;5001301;28;20034;-67
2022/03/15 06:33:35;;;;;;;49.72;27.75;;;;;;;4.28;100.00;102679.06;4990683;28;20246;-68
2022/03/15 06:36:02;;;;;;;52.97;27.75;;;;;;;4.30;100.00;102677.38;4988033;28;20064;-68
2022/03/15 06:38:28;;;;;;;48.53;27.48;;;;;;;4.30;100.00;102678.22;4986229;28;20041;-67
2022/03/15 06:40:54;;;;;;;57.00;28.38;;;;;;;4.32;100.00;102680.88;5002528;28;20120;-67
2022/03/15 06:43:19;;;;;;;47.85;27.35;;;;;;;4.34;100.00;102668.63;5004670;28;20116;-67
2022/03/15 06:45:46;;;;;;;50.63;27.27;;;;;;;4.35;100.00;102667.78;5003759;28;20044;-67
2022/03/15 06:48:12;;;;;;;50.13;27.33;;;;;;;4.38;100.00;102673.06;4987637;28;20440;-68
2022/03/15 06:50:38;;;;;;;51.92;27.48;;;;;;;4.39;100.00;102664.31;4987096;28;20037;-68
2022/03/15 06:53:03;;;;;;;45.42;27.83;;;;;;;4.42;100.00;102666.97;5002021;28;20084;-68
2022/03/15 06:55:29;;;;;;;47.85;25.77;;;;;;;4.44;100.00;102664.38;4987768;28;20026;-68
2022/03/15 06:57:55;;;;;;;46.17;26.73;;;;;;;4.48;100.00;102666.16;5005253;28;20033;-68
2022/03/15 07:00:21;;;;;;;44.65;28.08;;;;;;;4.51;100.00;102678.44;5005873;28;20033;-68
2022/03/15 07:02:47;;;;;;;50.08;27.77;;;;;;;4.54;100.00;102670.59;5005866;28;20044;-72
2022/03/15 07:05:12;;;;;;;50.30;28.58;;;;;;;4.57;100.00;102670.63;5004685;28;20037;-68
2022/03/15 07:07:39;;;;;;;54.13;27.80;;;;;;;4.60;100.00;102662.78;4990932;28;20037;-68
2022/03/15 07:10:06;;;;;;;43.90;26.60;;;;;;;4.62;100.00;102654.03;4999110;28;20664;-67
2022/03/15 07:12:33;;;;;;;50.67;28.48;;;;;;;4.67;100.00;102669.81;4991836;28;20109;-69
2022/03/15 07:15:00;;;;;;;44.05;25.25;;;;;;;4.70;100.00;102661.09;4983943;28;20121;-68
2022/03/15 07:17:27;;;;;;;51.65;25.90;;;;;;;4.73;100.00;102656.75;4982243;28;20041;-67
2022/03/15 07:19:52;;;;;;;55.17;27.45;;;;;;;4.75;100.00;102654.16;4969139;28;20464;-69
2022/03/15 07:22:18;;;;;;;49.95;27.98;;;;;;;4.79;100.00;102657.69;4995385;28;20055;-68
2022/03/15 07:24:43;;;;;;;53.33;28.58;;;;;;;4.82;100.00;102661.22;4998396;28;20042;-69
2022/03/15 07:27:09;;;;;;;45.10;25.95;;;;;;;4.84;100.00;102658.56;4986469;28;20033;-69
2022/03/15 07:29:34;;;;;;;46.05;25.50;;;;;;;4.85;100.00;102658.59;4999361;28;20061;-69
2022/03/15 07:32:00;;;;;;;49.67;25.13;;;;;;;4.86;100.00;102646.34;4984839;28;20037;-68
2022/03/15 07:34:26;;;;;;;42.08;25.05;;;;;;;4.88;100.00;102650.75;4984565;28;20041;-68
2022/03/15 07:36:51;;;;;;;48.72;26.48;;;;;;;4.90;100.00;102645.50;4983792;28;20148;-67
2022/03/15 07:39:17;;;;;;;44.55;25.95;;;;;;;4.93;100.00;102653.41;4985138;28;20048;-68
2022/03/15 07:41:43;;;;;;;49.47;26.73;;;;;;;4.98;100.00;102645.56;5004094;28;20044;-67
2022/03/15 07:44:10;;;;;;;50.55;26.30;;;;;;;5.02;100.00;102642.97;4985276;28;20026;-68
2022/03/15 07:46:36;;;;;;;49.63;26.23;;;;;;;5.09;100.00;102643.00;4981310;28;20048;-67
2022/03/15 07:49:02;;;;;;;47.78;24.85;;;;;;;5.15;100.00;102645.69;4984131;28;20192;-70
2022/03/15 07:51:28;;;;;;;42.88;24.23;;;;;;;5.20;100.00;102643.97;4987190;28;20037;-67
2022/03/15 07:53:54;;;;;;;46.55;25.38;;;;;;;5.28;100.00;102646.59;5005055;28;20042;-67
2022/03/15 07:56:20;;;;;;;46.13;23.55;;;;;;;5.33;100.00;102641.41;4972006;28;20033;-68
2022/03/15 07:58:45;;;;;;;38.63;22.98;;;;;;;5.38;100.00;102645.81;4993377;28;20449;-70
2022/03/15 08:01:11;;;;;;;44.95;24.05;;;;;;;5.46;100.00;102645.84;4974131;28;20030;-70
2022/03/15 08:03:36;;;;;;;48.88;23.60;;;;;;;5.53;100.00;102639.75;5004104;28;20040;-70
2022/03/15 08:06:02;;;;;;;43.05;23.15;;;;;;;5.61;100.00;102638.91;4989296;28;20029;-69
2022/03/15 08:08:28;;;;;;;45.35;24.25;;;;;;;5.68;100.00;102633.66;4984359;28;20058;-70
2022/03/15 08:10:53;;;;;;;47.97;23.70;;;;;;;5.74;100.00;102638.09;4986868;28;21162;-70
2022/03/15 08:13:19;;;;;;;43.67;23.33;;;;;;;5.81;100.00;102637.25;4987465;28;20037;-72
2022/03/15 08:15:44;;;;;;;46.13;24.63;;;;;;;5.86;100.00;102650.38;4984326;28;20034;-70
2022/03/15 08:18:10;;;;;;;47.65;25.15;;;;;;;5.93;100.00;102638.13;4982552;28;21768;-69
2022/03/15 08:20:40;;;;;;;49.55;26.60;;;;;;;5.98;100.00;102641.66;4983397;28;20501;-70
2022/03/15 08:23:07;;;;;;;56.72;28.95;;;;;;;6.01;100.00;102632.91;4984487;28;20030;-70
2022/03/15 08:25:33;;;;;;;53.83;28.98;;;;;;;6.04;100.00;102636.44;4985256;28;20037;-70
2022/03/15 08:28:00;;;;;;;57.08;29.95;;;;;;;6.07;100.00;102633.84;5000120;28;20029;-70
2022/03/15 08:30:27;;;;;;;54.72;30.23;;;;;;;6.14;100.00;102633.84;4985775;28;20556;-71
2022/03/15 08:32:53;;;;;;;57.20;30.20;;;;;;;6.16;100.00;102630.31;4987247;28;20707;-71
2022/03/15 08:35:19;;;;;;;55.50;30.58;;;;;;;6.23;100.00;102628.59;4983260;28;20146;-71
2022/03/15 08:37:50;;;;;;;59.05;31.50;;;;;;;6.27;100.00;102630.38;4983994;28;20037;-69
2022/03/15 08:40:20;;;;;;;56.15;30.33;;;;;;;6.36;100.00;102637.38;4984490;28;20117;-69
2022/03/15 08:42:45;;;;;;;51.55;29.85;;;;;;;6.38;100.00;102631.25;5002038;28;20469;-71
2022/03/15 08:45:11;;;;;;;51.83;30.25;;;;;;;6.41;100.00;102630.38;4984474;28;20045;-70
2022/03/15 08:47:37;;;;;;;56.92;30.80;;;;;;;6.45;100.00;102623.34;4984520;28;20042;-70
2022/03/15 08:50:04;;;;;;;50.75;29.75;;;;;;;6.49;100.00;102633.00;4986107;28;20104;-70
2022/03/15 08:52:30;;;;;;;58.80;31.13;;;;;;;6.51;100.00;102626.88;4985793;28;20124;-79
2022/03/15 08:54:56;;;;;;;56.95;30.48;;;;;;;6.53;100.00;102626.84;4982497;28;20137;-70
2022/03/15 08:57:22;;;;;;;58.72;31.02;;;;;;;6.57;100.00;102626.00;4983186;28;20192;-70
2022/03/15 08:59:47;;;;;;;51.58;30.10;;;;;;;6.60;100.00;102627.75;4967366;28;21520;-68
2022/03/15 09:02:13;;;;;;;55.70;31.27;;;;;;;6.62;100.00;102629.50;4984720;28;20029;-68
2022/03/15 09:04:38;;;;;;;53.78;31.17;;;;;;;6.65;100.00;102624.22;4983222;28;20294;-68
2022/03/15 09:07:04;;;;;;;59.92;32.10;;;;;;;6.69;100.00;102613.72;4981792;28;20070;-69
2022/03/15 09:09:30;;;;;;;54.20;31.77;;;;;;;6.72;100.00;102614.59;4997044;28;20157;-69
2022/03/15 09:11:56;;;;;;;56.67;31.38;;;;;;;6.77;100.00;102619.84;5002466;28;20064;-69
2022/03/15 09:14:21;;;;;;;61.03;31.13;;;;;;;6.81;100.00;102613.66;4980347;28;20370;-67
2022/03/15 09:16:47;;;;;;;53.35;32.10;;;;;;;6.86;100.00;102606.66;4984680;28;20033;-68
2022/03/15 09:19:13;;;;;;;55.83;31.90;;;;;;;6.91;100.00;102604.91;5007338;28;20670;-69
2022/03/15 09:21:39;;;;;;;62.33;33.28;;;;;;;7.02;100.00;102598.72;5003905;28;20032;-69
2022/03/15 09:24:05;;;;;;;57.40;31.92;;;;;;;7.09;100.00;102592.56;4967358;28;20059;-68
2022/03/15 09:26:31;;;;;;;71.20;33.88;;;;;;;7.17;100.00;102588.16;4986368;28;20780;-69
2022/03/15 09:28:56;;;;;;;57.20;31.30;;;;;;;7.25;100.00;102587.25;4974374;28;20574;-68
2022/03/15 09:31:22;;;;;;;53.03;30.33;;;;;;;7.29;100.00;102581.97;4985876;28;20044;-68
2022/03/15 09:33:48;;;;;;;46.83;30.38;;;;;;;7.38;100.00;102582.81;4983724;28;20042;-68
2022/03/15 09:36:14;;;;;;;55.83;30.20;;;;;;;7.45;100.00;102582.78;4983607;28;20033;-69
2022/03/15 09:38:40;;;;;;;52.50;30.10;;;;;;;7.52;100.00;102585.38;5001113;28;20041;-68
2022/03/15 09:41:06;;;;;;;53.30;31.13;;;;;;;7.56;100.00;102581.84;4982503;28;20033;-69
2022/03/15 09:43:40;;;;;;;54.30;30.55;;;;;;;7.64;100.00;102580.06;5002359;28;20033;-69
2022/03/15 09:46:08;;;;;;;49.55;30.90;;;;;;;7.75;100.00;102577.34;5002506;28;20124;-69
2022/03/15 09:48:34;;;;;;;51.05;30.45;;;;;;;7.88;100.00;102576.41;5002365;28;20072;-69
2022/03/15 09:51:02;;;;;;;50.92;30.75;;;;;;;8.00;100.00;102578.06;5000683;28;21749;-69
2022/03/15 09:53:28;;;;;;;51.22;30.45;;;;;;;8.07;100.00;102568.34;5000083;28;20029;-70
2022/03/15 09:55:54;;;;;;;46.20;30.15;;;;;;;8.12;100.00;102577.09;5001847;28;21627;-70
2022/03/15 09:58:21;;;;;;;48.50;30.67;;;;;;;8.15;100.00;102573.56;4999767;28;20079;-68
2022/03/15 10:00:53;;;;;;;50.08;30.23;;;;;;;8.16;100.00;102572.69;5003432;28;20029;-69
2022/03/15 10:03:19;;;;;;;49.72;30.75;;;;;;;8.18;100.00;102568.28;5004304;28;20046;-69
2022/03/15 10:05:46;;;;;;;50.88;31.25;;;;;;;8.17;100.00;102571.78;4984254;28;20036;-69
2022/03/15 10:08:16;;;;;;;53.90;30.88;;;;;;;8.19;100.00;102571.78;5003495;28;20516;-69
2022/03/15 10:10:42;;;;;;;47.13;29.30;;;;;;;8.19;100.00;102562.13;4985761;28;20034;-70
2022/03/15 10:13:09;;;;;;;54.90;30.85;;;;;;;8.22;100.00;102570.00;5002333;28;21387;-69
2022/03/15 10:15:35;;;;;;;46.10;28.70;;;;;;;8.26;100.00;102557.66;4986563;28;20945;-70
2022/03/15 10:18:06;;;;;;;44.00;29.20;;;;;;;8.28;100.00;102567.31;5002145;28;20029;-69
2022/03/15 10:20:42;;;;;;;45.55;29.75;;;;;;;8.32;100.00;102564.66;5003309;28;20049;-69
2022/03/15 10:23:12;;;;;;;50.28;29.33;;;;;;;8.39;100.00;102567.22;4999895;28;20025;-69
2022/03/15 10:25:41;;;;;;;43.47;29.15;;;;;;;8.46;100.00;102561.88;5003902;28;20026;-69
2022/03/15 10:28:08;;;;;;;46.20;30.08;;;;;;;8.52;100.00;102560.13;4985965;28;20037;-69
2022/03/15 10:30:35;;;;;;;43.60;28.70;;;;;;;8.56;100.00;102559.19;5003500;28;20117;-69
2022/03/15 10:33:02;;;;;;;47.13;30.30;;;;;;;8.59;100.00;102555.63;4973772;28;20501;-69
2022/03/15 10:35:30;;;;;;;44.25;28.10;;;;;;;8.66;100.00;102556.47;4970215;28;20033;-68
2022/03/15 10:37:56;;;;;;;55.38;30.83;;;;;;;8.72;100.00;102556.38;5001414;28;20069;-68
2022/03/15 10:40:41;;;;;;;64.78;31.58;;;;;;;8.76;100.00;102555.47;4986075;28;20038;-69
2022/03/15 10:43:10;;;;;;;169.93;40.22;;;;;;;8.74;100.00;102554.63;4981738;28;20124;-69
2022/03/15 10:45:38;;;;;;;53.38;29.48;;;;;;;8.78;100.00;102555.47;4990166;28;20104;-69
2022/03/15 10:48:31;;;;;;;44.30;28.58;;;;;;;8.78;100.00;102553.66;5000328;28;20030;-70
2022/03/15 10:50:58;;;;;;;41.60;27.20;;;;;;;8.78;100.00;102560.75;4986102;28;20076;-70
2022/03/15 10:53:27;;;;;;;43.47;27.90;;;;;;;8.72;100.00;102552.88;5000575;28;20070;-71
2022/03/15 10:56:19;;;;;;;45.92;29.48;;;;;;;8.65;100.00;102544.13;4982009;28;20047;-70
2022/03/15 10:58:51;;;;;;;49.25;29.23;;;;;;;8.64;100.00;102542.38;4984989;28;20048;-70
2022/03/15 11:01:22;;;;;;;43.10;27.13;;;;;;;8.63;100.00;102538.00;4999459;28;20029;-69
2022/03/15 11:04:02;;;;;;;38.17;26.65;;;;;;;8.60;100.00;102538.91;4997785;28;20045;-69
2022/03/15 11:06:41;;;;;;;42.78;28.30;;;;;;;8.65;100.00;102542.38;4999934;28;20782;-69
2022/03/15 11:09:21;;;;;;;97.80;34.97;;;;;;;8.75;100.00;102539.63;4999641;28;20621;-68